Terminal Aerodrome Forecast
Issued by NWS Milwaukee/Sullivan, WI

Home | Current Version | Previous Version | Text Only | Print | Product List | Glossary On
Versions: 1 2 3 4 5 6 7 8 9 10 11 12 13 14 15 16 17 18 19 20 21 22 23 24
000
FTUS43 KMKX 271404 AAA
TAFMKE
TAF AMD
KMKE 271404Z 2714/2818 27007KT P6SM SCT250
     FM271800 17005KT P6SM SCT040
     FM272000 16005KT P6SM SCT040
     FM272200 24005KT P6SM VCTS BKN040CB
     FM280200 VRB03KT 5SM -TSRA SCT025 OVC040CB
     FM280400 VRB03KT P6SM -SHRA VCTS BKN040CB OVC060
     FM281400 04008KT P6SM BKN035=

USA.gov is the U.S. government's official web portal to all federal, state and local government web resources and services.